createdAt,value
2022-11-14T00:00:59.638Z,13.37
2022-11-14T00:03:26.763Z,19.30
2022-11-14T00:05:53.868Z,12.13
2022-11-14T00:08:22.136Z,14.13
2022-11-14T00:10:50.460Z,11.90
2022-11-14T00:13:18.093Z,11.07
2022-11-14T00:15:45.874Z,12.43
2022-11-14T00:18:13.242Z,24.17
2022-11-14T00:20:40.565Z,13.50
2022-11-14T00:23:07.694Z,9.97
2022-11-14T00:25:34.875Z,20.03
2022-11-14T00:28:01.988Z,15.10
2022-11-14T00:30:29.232Z,12.00
2022-11-14T00:32:56.365Z,10.77
2022-11-14T00:35:23.739Z,10.77
2022-11-14T00:37:50.850Z,9.87
2022-11-14T00:40:18.065Z,10.83
2022-11-14T00:42:45.147Z,11.67
2022-11-14T00:45:12.509Z,13.00
2022-11-14T00:47:39.653Z,11.80
2022-11-14T00:50:07.040Z,9.87
2022-11-14T00:52:34.152Z,9.43
2022-11-14T00:55:01.304Z,9.37
2022-11-14T00:57:28.753Z,13.43
2022-11-14T00:59:55.956Z,9.97
2022-11-14T01:02:23.774Z,11.60
2022-11-14T01:04:50.926Z,9.83
2022-11-14T01:07:18.037Z,10.60
2022-11-14T01:09:45.132Z,9.63
2022-11-14T01:12:12.295Z,9.37
2022-11-14T01:14:41.093Z,10.57
2022-11-14T01:17:08.423Z,13.60
2022-11-14T01:19:35.821Z,10.30
2022-11-14T01:22:06.221Z,12.03
2022-11-14T01:24:34.264Z,10.23
2022-11-14T01:27:01.557Z,10.43
2022-11-14T01:29:29.114Z,11.67
2022-11-14T01:31:56.381Z,11.40
2022-11-14T01:34:24.033Z,12.50
2022-11-14T01:36:51.312Z,12.43
2022-11-14T01:39:18.447Z,11.23
2022-11-14T01:41:45.536Z,9.90
2022-11-14T01:44:32.884Z,10.83
2022-11-14T01:46:59.985Z,9.90
2022-11-14T01:49:30.414Z,10.90
2022-11-14T01:52:02.872Z,13.63
2022-11-14T01:54:31.517Z,11.47
2022-11-14T01:57:00.042Z,9.93
2022-11-14T01:59:33.758Z,10.27
2022-11-14T02:02:02.739Z,10.17
2022-11-14T02:04:33.475Z,12.97
2022-11-14T02:07:02.729Z,10.30
2022-11-14T02:09:32.034Z,10.93
2022-11-14T02:12:00.346Z,11.67
2022-11-14T02:14:28.010Z,12.57
2022-11-14T02:17:14.794Z,11.33
2022-11-14T02:19:50.132Z,9.97
2022-11-14T02:22:17.381Z,9.80
2022-11-14T02:24:44.631Z,11.83
2022-11-14T02:27:12.413Z,12.60
2022-11-14T02:29:39.578Z,13.53
2022-11-14T02:32:10.449Z,12.47
2022-11-14T02:34:38.287Z,11.33
2022-11-14T02:37:05.616Z,12.13
2022-11-14T02:39:32.992Z,11.73
2022-11-14T02:42:00.092Z,10.87
2022-11-14T02:44:27.179Z,13.53
2022-11-14T02:46:54.297Z,11.90
2022-11-14T02:49:21.430Z,12.23
2022-11-14T02:51:48.605Z,11.50
2022-11-14T02:54:15.719Z,11.83
2022-11-14T02:56:42.785Z,11.50
2022-11-14T02:59:09.866Z,12.13
2022-11-14T03:01:37.077Z,13.33
2022-11-14T03:04:04.396Z,12.60
2022-11-14T03:06:31.575Z,14.40
2022-11-14T03:08:58.757Z,12.50
2022-11-14T03:11:25.842Z,12.43
2022-11-14T03:13:52.991Z,12.77
2022-11-14T03:16:20.173Z,10.57
2022-11-14T03:18:47.271Z,11.23
2022-11-14T03:21:16.703Z,15.83
2022-11-14T03:23:44.173Z,15.13
2022-11-14T03:26:11.832Z,12.37
2022-11-14T03:28:39.368Z,11.17
2022-11-14T03:31:06.991Z,12.20
2022-11-14T03:33:36.367Z,11.33
2022-11-14T03:36:03.856Z,11.97
2022-11-14T03:38:31.725Z,11.47
2022-11-14T03:40:59.908Z,14.20
2022-11-14T03:43:27.604Z,13.70
2022-11-14T03:45:55.123Z,11.73
2022-11-14T03:48:22.469Z,12.27
2022-11-14T03:50:49.566Z,12.77
2022-11-14T03:53:16.659Z,18.97
2022-11-14T03:55:44.633Z,13.00
2022-11-14T03:58:11.392Z,12.90
2022-11-14T04:00:38.879Z,11.30
2022-11-14T04:03:05.618Z,13.10
2022-11-14T04:05:32.511Z,12.77
2022-11-14T04:07:59.225Z,11.10
2022-11-14T04:10:26.512Z,14.67
2022-11-14T04:12:54.704Z,11.90
2022-11-14T04:15:21.936Z,11.80
2022-11-14T04:17:49.084Z,13.17
2022-11-14T04:20:16.355Z,10.80
2022-11-14T04:22:43.757Z,11.07
2022-11-14T04:25:10.937Z,16.93
2022-11-14T04:27:38.057Z,10.93
2022-11-14T04:30:05.591Z,11.77
2022-11-14T04:32:32.753Z,11.00
2022-11-14T04:34:59.924Z,10.70
2022-11-14T04:37:27.041Z,10.90
2022-11-14T04:39:58.511Z,11.20
2022-11-14T04:42:26.070Z,11.27
2022-11-14T04:44:53.222Z,11.13
2022-11-14T04:47:20.567Z,13.50
2022-11-14T04:49:47.657Z,11.40
2022-11-14T04:52:14.754Z,12.70
2022-11-14T04:54:41.846Z,12.40
2022-11-14T04:57:09.006Z,12.57
2022-11-14T04:59:36.147Z,11.40
2022-11-14T05:02:03.264Z,12.37
2022-11-14T05:04:31.070Z,14.07
2022-11-14T05:06:58.231Z,10.57
2022-11-14T05:09:25.367Z,13.57
2022-11-14T05:11:52.600Z,12.07
2022-11-14T05:14:19.787Z,13.50
2022-11-14T05:16:46.898Z,11.03
2022-11-14T05:19:13.995Z,12.07
2022-11-14T05:21:41.103Z,11.98
2022-11-14T05:24:08.248Z,12.73
2022-11-14T05:26:35.353Z,13.30
2022-11-14T05:29:02.503Z,12.03
2022-11-14T05:31:29.582Z,11.37
2022-11-14T05:33:56.676Z,11.33
2022-11-14T05:36:23.761Z,11.37
2022-11-14T05:38:50.905Z,12.20
2022-11-14T05:41:20.130Z,11.40
2022-11-14T05:43:47.205Z,12.33
2022-11-14T05:46:15.780Z,14.30
2022-11-14T05:48:43.135Z,10.90
2022-11-14T05:51:13.623Z,11.03
2022-11-14T05:53:41.502Z,15.87
2022-11-14T05:56:12.176Z,12.80
2022-11-14T05:58:39.685Z,15.07
2022-11-14T06:01:15.222Z,12.60
2022-11-14T06:03:44.754Z,14.23
2022-11-14T06:06:14.005Z,14.20
2022-11-14T06:08:41.165Z,20.50
2022-11-14T06:11:12.382Z,13.60
2022-11-14T06:13:39.591Z,14.40
2022-11-14T06:16:09.950Z,13.40
2022-11-14T06:18:37.034Z,16.83
2022-11-14T06:21:11.215Z,18.93
2022-11-14T06:23:37.951Z,15.87
2022-11-14T06:26:07.356Z,14.83
2022-11-14T06:28:34.250Z,15.77
2022-11-14T06:31:04.690Z,14.17
2022-11-14T06:33:35.761Z,16.83
2022-11-14T06:36:05.544Z,16.10
2022-11-14T06:38:34.268Z,19.40
2022-11-14T06:41:06.975Z,16.17
2022-11-14T06:43:42.474Z,15.63
2022-11-14T06:46:11.293Z,20.97
2022-11-14T06:48:38.581Z,19.60
2022-11-14T06:51:06.284Z,16.23
2022-11-14T06:53:35.458Z,17.57
2022-11-14T06:56:12.668Z,17.33
2022-11-14T06:58:42.690Z,14.97
2022-11-14T07:01:14.050Z,17.53
2022-11-14T07:03:41.884Z,21.03
2022-11-14T07:06:11.323Z,23.00
2022-11-14T07:08:38.609Z,15.03
2022-11-14T07:11:08.034Z,15.77
2022-11-14T07:13:35.686Z,20.17
2022-11-14T07:16:03.645Z,16.60
2022-11-14T07:18:32.544Z,17.13
2022-11-14T07:21:02.068Z,19.07
2022-11-14T07:23:30.268Z,15.00
2022-11-14T07:26:01.475Z,19.03
2022-11-14T07:28:28.554Z,17.23
2022-11-14T07:30:55.609Z,15.47
2022-11-14T07:33:22.563Z,23.40
2022-11-14T07:35:51.329Z,15.27
2022-11-14T07:38:18.027Z,12.67
2022-11-14T07:40:59.115Z,12.57
2022-11-14T07:43:27.042Z,15.80
2022-11-14T07:45:54.577Z,12.23
2022-11-14T07:48:22.424Z,13.93
2022-11-14T07:50:49.167Z,11.07
2022-11-14T07:53:18.157Z,12.77
2022-11-14T07:55:44.908Z,11.47
2022-11-14T07:58:11.824Z,9.70
2022-11-14T08:00:38.591Z,13.57
2022-11-14T08:03:07.512Z,13.97
2022-11-14T08:05:35.041Z,9.83
2022-11-14T09:27:27.030Z,20.27
2022-11-14T09:29:53.780Z,23.67
2022-11-14T09:32:20.520Z,19.80
2022-11-14T09:34:48.071Z,22.13
2022-11-14T09:37:14.873Z,23.03
2022-11-14T09:39:41.708Z,20.83
2022-11-14T09:42:32.956Z,18.47
2022-11-14T09:45:02.309Z,22.20
2022-11-14T09:47:30.763Z,21.80
2022-11-14T09:50:27.469Z,22.77
2022-11-14T09:53:10.416Z,20.83
2022-11-14T09:55:37.620Z,24.13
2022-11-14T09:58:08.659Z,21.17
2022-11-14T10:01:08.946Z,20.27
2022-11-14T10:03:51.372Z,22.47
2022-11-14T10:06:34.960Z,25.67
2022-11-14T10:09:46.204Z,21.23
2022-11-14T10:12:34.431Z,25.40
2022-11-14T10:15:16.893Z,20.07
2022-11-14T10:18:29.110Z,26.17
2022-11-14T10:21:07.879Z,24.73
2022-11-14T10:23:37.277Z,18.40
2022-11-14T10:26:31.368Z,20.70
2022-11-14T10:29:28.811Z,19.00
2022-11-14T10:32:10.663Z,17.40
2022-11-14T10:34:56.487Z,18.97
2022-11-14T10:37:38.774Z,16.13
2022-11-14T10:40:18.064Z,16.03
2022-11-14T10:42:49.654Z,17.37
2022-11-14T10:45:38.885Z,14.60
2022-11-14T10:48:17.027Z,19.07
2022-11-14T10:50:50.737Z,14.53
2022-11-14T10:53:55.395Z,15.57
2022-11-14T10:56:22.500Z,16.20
2022-11-14T10:58:50.229Z,14.67
2022-11-14T11:01:35.526Z,14.20
2022-11-14T11:04:21.597Z,12.53
2022-11-14T11:06:50.812Z,14.43
2022-11-14T11:09:43.808Z,9.90
2022-11-14T11:12:23.853Z,8.60
2022-11-14T11:15:21.714Z,12.33
2022-11-14T11:18:01.738Z,8.87
2022-11-14T11:20:31.291Z,8.27
2022-11-14T11:23:10.551Z,8.10
2022-11-14T11:25:38.984Z,9.13
2022-11-14T11:28:06.489Z,8.20
2022-11-14T11:30:33.638Z,7.90
2022-11-14T11:33:22.211Z,10.70
2022-11-14T11:35:51.055Z,21.23
2022-11-14T11:38:20.023Z,10.87
2022-11-14T11:40:50.013Z,10.33
2022-11-14T11:43:54.001Z,13.57
2022-11-14T11:46:42.488Z,22.50
2022-11-14T11:49:39.420Z,15.80
2022-11-14T11:52:32.333Z,13.20
2022-11-14T11:55:09.790Z,11.47
2022-11-14T11:57:43.929Z,12.43
2022-11-14T12:00:24.701Z,20.43
2022-11-14T12:02:52.941Z,12.80
2022-11-14T12:05:41.676Z,11.17
2022-11-14T12:08:51.388Z,12.27
2022-11-14T12:11:21.440Z,13.93
2022-11-14T12:14:06.830Z,13.50
2022-11-14T12:17:11.153Z,13.20
2022-11-14T12:19:40.731Z,12.57
2022-11-14T12:22:07.377Z,12.17
2022-11-14T12:24:52.768Z,11.13
2022-11-14T12:27:44.508Z,11.33
2022-11-14T12:30:22.055Z,12.67
2022-11-14T12:32:58.323Z,12.17
2022-11-14T12:35:29.508Z,11.33
2022-11-14T12:37:58.522Z,12.13
2022-11-14T12:40:28.924Z,11.90
2022-11-14T12:42:57.306Z,15.20
2022-11-14T12:45:42.318Z,12.80
2022-11-14T12:48:15.037Z,10.50
2022-11-14T12:50:43.451Z,11.87
2022-11-14T12:53:37.959Z,13.37
2022-11-14T12:56:29.282Z,12.97
2022-11-14T12:59:17.015Z,12.60
2022-11-14T13:01:52.644Z,10.17
2022-11-14T13:04:52.006Z,10.67
2022-11-14T13:07:46.165Z,13.47
2022-11-14T13:10:14.796Z,11.17
2022-11-14T13:13:29.494Z,12.33
2022-11-14T13:16:17.518Z,12.23
2022-11-14T13:19:10.514Z,12.20
2022-11-14T13:21:46.949Z,12.90
2022-11-14T13:24:20.461Z,12.33
2022-11-14T13:26:52.857Z,17.80
2022-11-14T13:29:41.168Z,11.47
2022-11-14T13:32:11.865Z,11.27
2022-11-14T13:34:58.983Z,9.93
2022-11-14T13:37:44.594Z,9.63
2022-11-14T13:40:22.885Z,13.17
2022-11-14T13:43:01.923Z,10.73
2022-11-14T13:45:46.980Z,12.87
2022-11-14T13:48:28.580Z,12.07
2022-11-14T13:51:28.934Z,11.93
2022-11-14T13:53:56.282Z,12.50
2022-11-14T13:56:35.060Z,12.73
2022-11-14T13:59:25.060Z,11.53
2022-11-14T14:02:10.559Z,12.17
2022-11-14T14:05:05.347Z,12.67
2022-11-14T14:07:57.160Z,17.47
2022-11-14T14:10:33.582Z,12.83
2022-11-14T14:13:40.256Z,17.63
2022-11-14T14:16:30.340Z,16.73
2022-11-14T14:19:10.636Z,14.90
2022-11-14T14:21:50.141Z,17.43
2022-11-14T14:24:22.728Z,20.07
2022-11-14T14:27:16.599Z,17.77
2022-11-14T14:30:02.833Z,16.23
2022-11-14T14:32:29.631Z,19.03
2022-11-14T14:34:58.518Z,18.73
2022-11-14T14:37:27.753Z,20.20
2022-11-14T14:40:02.567Z,20.30
2022-11-14T14:42:38.902Z,27.93
2022-11-14T14:45:15.636Z,17.23
2022-11-14T14:47:45.973Z,16.77
2022-11-14T14:50:23.262Z,17.90
2022-11-14T14:53:01.378Z,19.67
2022-11-14T14:55:33.277Z,23.60
2022-11-14T14:58:23.494Z,25.57
2022-11-14T15:01:11.097Z,19.43
2022-11-14T15:03:40.527Z,21.27
2022-11-14T15:06:29.720Z,22.30
2022-11-14T15:08:58.267Z,16.73
2022-11-14T15:11:32.252Z,17.33
2022-11-14T15:14:00.678Z,17.33
2022-11-14T15:16:29.280Z,15.67
2022-11-14T15:18:58.018Z,16.70
2022-11-14T15:21:27.724Z,15.60
2022-11-14T15:24:20.280Z,16.60
2022-11-14T15:26:49.874Z,18.23
2022-11-14T15:29:20.529Z,17.47
2022-11-14T15:31:57.794Z,22.87
2022-11-14T15:34:34.338Z,19.73
2022-11-14T15:37:16.550Z,14.57
2022-11-14T15:39:44.227Z,16.47
2022-11-14T15:42:23.750Z,15.53
2022-11-14T15:44:51.124Z,15.37
2022-11-14T15:47:34.506Z,23.10
2022-11-14T15:50:22.449Z,15.37
2022-11-14T15:52:55.474Z,15.63
2022-11-14T15:55:24.210Z,18.27
2022-11-14T15:58:06.744Z,15.77
2022-11-14T16:00:43.575Z,18.30
2022-11-14T16:03:12.611Z,15.60
2022-11-14T16:05:39.426Z,16.30
2022-11-14T16:08:06.182Z,16.30
2022-11-14T16:10:32.955Z,18.13
2022-11-14T16:12:59.674Z,17.83
2022-11-14T16:15:26.503Z,15.93
2022-11-14T16:17:53.249Z,15.73
2022-11-14T16:20:28.755Z,20.17
2022-11-14T16:22:58.259Z,18.63
2022-11-14T16:25:29.803Z,18.33
2022-11-14T16:27:56.669Z,18.13
2022-11-14T16:30:25.197Z,16.20
2022-11-14T16:32:52.860Z,15.17
2022-11-14T16:35:22.016Z,18.77
2022-11-14T16:37:49.559Z,20.77
2022-11-14T16:40:22.880Z,17.70
2022-11-14T16:42:50.676Z,18.57
2022-11-14T16:45:20.162Z,17.00
2022-11-14T16:47:47.877Z,17.23
2022-11-14T16:50:15.085Z,15.13
2022-11-14T16:52:41.854Z,15.70
2022-11-14T16:55:11.345Z,16.67
2022-11-14T16:57:38.883Z,16.83
2022-11-14T17:00:09.049Z,16.07
2022-11-14T17:02:35.773Z,17.20
2022-11-14T17:05:02.584Z,15.30
2022-11-14T17:07:32.664Z,15.30
2022-11-14T17:10:02.217Z,17.57
2022-11-14T17:12:29.091Z,16.03
2022-11-14T17:14:55.940Z,16.73
2022-11-14T17:17:22.654Z,16.87
2022-11-14T17:19:49.610Z,17.77
2022-11-14T17:22:18.110Z,19.90
2022-11-14T17:24:44.875Z,15.80
2022-11-14T17:27:13.016Z,17.80
2022-11-14T17:29:40.061Z,16.80
2022-11-14T17:32:07.033Z,17.40
2022-11-14T17:34:33.941Z,15.30
2022-11-14T17:37:00.671Z,19.33
2022-11-14T17:39:27.364Z,14.97
2022-11-14T17:41:54.081Z,15.27
2022-11-14T17:44:21.056Z,17.47
2022-11-14T17:46:48.265Z,17.80
2022-11-14T17:49:15.048Z,17.27
2022-11-14T17:51:41.842Z,15.60
2022-11-14T17:54:09.030Z,17.63
2022-11-14T17:56:35.965Z,17.13
2022-11-14T17:59:03.986Z,15.70
2022-11-14T18:01:31.601Z,15.40
2022-11-14T18:04:01.754Z,17.23
2022-11-14T18:06:31.409Z,17.70
2022-11-14T18:09:01.236Z,15.40
2022-11-14T18:11:27.966Z,15.90
2022-11-14T18:13:56.015Z,17.70
2022-11-14T18:16:26.335Z,16.43
2022-11-14T18:18:58.331Z,15.13
2022-11-14T18:21:25.614Z,15.90
2022-11-14T18:23:54.158Z,16.13
2022-11-14T18:26:27.031Z,14.83
2022-11-14T18:29:02.349Z,13.40
2022-11-14T18:31:29.712Z,13.60
2022-11-14T18:33:56.964Z,18.73
2022-11-14T18:36:24.309Z,14.20
2022-11-14T18:38:51.064Z,12.97
2022-11-14T18:41:20.893Z,15.70
2022-11-14T18:43:48.280Z,15.20
2022-11-14T18:46:21.694Z,15.50
2022-11-14T18:48:53.451Z,16.00
2022-11-14T18:51:29.002Z,14.27
2022-11-14T18:53:57.814Z,14.90
2022-11-14T18:56:25.534Z,13.60
2022-11-14T18:58:54.535Z,13.87
2022-11-14T19:01:26.089Z,14.37
2022-11-14T19:03:56.900Z,14.80
2022-11-14T19:06:23.888Z,18.20
2022-11-14T19:08:50.671Z,12.17
2022-11-14T19:11:37.711Z,15.60
2022-11-14T19:14:05.997Z,14.20
2022-11-14T19:16:37.445Z,13.87
2022-11-14T19:19:08.286Z,14.50
2022-11-14T19:21:35.677Z,15.83
2022-11-14T19:24:02.873Z,13.37
2022-11-14T19:26:30.028Z,14.17
2022-11-14T19:28:57.681Z,14.13
2022-11-14T19:31:25.149Z,14.97
2022-11-14T19:33:51.968Z,11.00
2022-11-14T19:36:52.792Z,12.40
2022-11-14T19:39:08.816Z,12.80
2022-11-14T19:41:35.616Z,10.70
2022-11-14T19:44:03.277Z,12.93
2022-11-14T19:46:30.338Z,11.07
2022-11-14T19:48:58.317Z,11.17
2022-11-14T19:51:26.083Z,11.40
2022-11-14T19:53:53.532Z,13.10
2022-11-14T19:56:21.640Z,10.73
2022-11-14T19:58:49.669Z,14.93
2022-11-14T20:01:20.945Z,16.30
2022-11-14T20:03:51.875Z,11.53
2022-11-14T20:06:25.027Z,11.23
2022-11-14T20:08:55.227Z,11.80
2022-11-14T20:11:23.549Z,13.63
2022-11-14T20:13:50.678Z,16.57
2022-11-14T20:16:20.133Z,17.47
2022-11-14T20:18:57.409Z,15.10
2022-11-14T20:21:26.916Z,11.87
2022-11-14T20:23:54.351Z,11.77
2022-11-14T20:26:22.015Z,12.87
2022-11-14T20:28:52.916Z,11.43
2022-11-14T20:31:25.393Z,12.10
2022-11-14T20:33:53.651Z,11.07
2022-11-14T20:36:23.917Z,14.37
2022-11-14T20:38:52.010Z,13.57
2022-11-14T20:41:20.818Z,16.03
2022-11-14T20:43:47.983Z,12.60
2022-11-14T20:46:17.273Z,13.37
2022-11-14T20:48:44.791Z,13.67
2022-11-14T20:51:21.762Z,15.97
2022-11-14T20:53:50.062Z,15.03
2022-11-14T20:56:17.206Z,17.70
2022-11-14T20:58:46.290Z,44.67
2022-11-14T21:01:14.537Z,15.07
2022-11-14T21:03:41.841Z,12.33
2022-11-14T21:06:11.387Z,15.47
2022-11-14T21:08:39.538Z,14.83
2022-11-14T21:11:13.742Z,13.33
2022-11-14T21:13:59.224Z,11.67
2022-11-14T21:16:36.141Z,13.87
2022-11-14T21:19:04.601Z,12.57
2022-11-14T21:21:34.313Z,14.53
2022-11-14T21:24:01.231Z,12.97
2022-11-14T21:26:33.566Z,11.87
2022-11-14T21:29:04.066Z,14.70
2022-11-14T21:31:32.020Z,15.00
2022-11-14T21:34:00.762Z,13.70
2022-11-14T21:36:45.872Z,10.97
2022-11-14T21:39:16.380Z,12.67
2022-11-14T21:41:43.962Z,11.30
2022-11-14T21:44:13.451Z,12.97
2022-11-14T21:46:40.808Z,12.17
2022-11-14T21:49:07.725Z,14.97
2022-11-14T21:51:34.469Z,13.50
2022-11-14T21:54:05.192Z,13.53
2022-11-14T21:56:37.174Z,14.50
2022-11-14T21:59:14.465Z,13.47
2022-11-14T22:02:07.758Z,11.57
2022-11-14T22:04:35.662Z,11.33
2022-11-14T22:07:07.172Z,13.10
2022-11-14T22:09:34.733Z,12.23
2022-11-14T22:12:02.253Z,13.90
2022-11-14T22:14:29.577Z,13.40
2022-11-14T22:16:58.079Z,13.50
2022-11-14T22:19:24.914Z,12.70
2022-11-14T22:21:51.849Z,11.57
2022-11-14T22:24:18.668Z,12.30
2022-11-14T22:26:45.594Z,11.80
2022-11-14T22:29:12.361Z,10.43
2022-11-14T22:31:39.140Z,12.07
2022-11-14T22:34:06.445Z,14.20
2022-11-14T22:36:33.446Z,10.67
2022-11-14T22:39:00.737Z,10.80
2022-11-14T22:41:33.208Z,10.87
2022-11-14T22:44:00.695Z,12.27
2022-11-14T22:46:27.871Z,11.13
2022-11-14T22:48:55.257Z,12.03
2022-11-14T22:51:23.821Z,9.90
2022-11-14T22:53:52.916Z,16.20
2022-11-14T22:56:28.292Z,14.10
2022-11-14T22:58:55.643Z,9.60
2022-11-14T23:01:25.373Z,11.53
2022-11-14T23:04:00.539Z,9.97
2022-11-14T23:06:28.666Z,9.90
2022-11-14T23:08:55.788Z,10.60
2022-11-14T23:11:25.685Z,10.93
2022-11-14T23:13:55.011Z,11.47
2022-11-14T23:16:24.425Z,12.87
2022-11-14T23:18:53.578Z,9.80
2022-11-14T23:21:25.743Z,11.83
2022-11-14T23:23:54.044Z,10.13
2022-11-14T23:26:22.206Z,11.43
2022-11-14T23:28:49.315Z,11.67
2022-11-14T23:31:19.523Z,10.50
2022-11-14T23:33:50.412Z,10.47
2022-11-14T23:36:17.802Z,9.13
2022-11-14T23:38:44.894Z,11.10
2022-11-14T23:41:22.951Z,14.40
2022-11-14T23:43:49.730Z,11.17
2022-11-14T23:46:16.486Z,9.60
2022-11-14T23:48:43.318Z,11.10
2022-11-14T23:51:10.564Z,12.67
2022-11-14T23:53:37.304Z,8.83
2022-11-14T23:56:04.177Z,9.57
2022-11-14T23:58:31.242Z,9.43
